Oleksandr Dovbyk

Olheiro - Dynamo Kyiv
3 Dez 2028
Domingo
Processo

Personalidade

Adaptabilidade (4) Ambição (19) Controvérsia (14) Lealdade (1) Pressão (5) Profissionalismo (10) Espírito Esportivo (16) Temperamento (13)

Perfil

Estilo de Treinamento Democrático
Licença Nacional A
Determinação 9
Gestão de Pessoas 11
Motivação 13
Disciplina 6
Satisfação no Trabalho
100%
Fadiga
0%
Função Olheiro
Salário 67.0K p/s
Contrato 14.03.2030

Desempenho

Comportamento Bom
Eficácia do Treinamento
52%
Desenvolvimento do Jogador
50%
Prevenção de Lesões
55%
Implementação Tática
60%

Eventos Recentes

Avaliou um jogador agora
Participou de uma reunião de recrutamento agora
Votou contra um alvo de transferência agora
Participou de uma reunião de recrutamento 7d atrás
Votou contra um alvo de transferência 7d atrás
Avaliou um jogador 7d atrás
Avaliou um jogador 7d atrás
Avaliou um jogador 14d atrás

Monitorando agora

87
Jogador Clube Status Habilidade Confiança Observado Última observação Último voto
Alex Scott Bournemouth Ativo 162 / 153 40% 7 01.12.2028 -
Lamare Bogarde Reading Ativo 149 / 150 40% 6 01.12.2028 -
Marcos López Gimnasia La Plata Ativo 129 / 137 40% 3 01.12.2028 -
Juanlu Bournemouth Ativo 159 / 152 40% 5 30.11.2028 -
Amadou Onana Aston Villa Ativo 163 / 168 40% 4 30.11.2028 -
Franco Ibarra Rosario Central Ativo 136 / 141 40% 4 30.11.2028 -
Andrey Santos Bolton Wanderers Ativo 157 / 152 40% 5 27.11.2028 -
Tyrick Mitchell Newcastle United Ativo 159 / 162 40% 3 27.11.2028 -
Santiago González Tigre Ativo 132 / 140 40% 2 27.11.2028 -
Fredrik Sjøvold Bodo/Glimt Ativo 143 / 151 40% 3 23.11.2028 -
Boubacar Kamara Aston Villa Ativo 172 / 174 40% 10 21.11.2028 -
Álex Valle Boca Juniors Ativo 143 / 142 40% 6 21.11.2028 -
Felipe Peña Biafore Lanús Ativo 134 / 142 40% 4 21.11.2028 -
Ryan Sessegnon Fulham Ativo 158 / 161 40% 5 19.11.2028 -
Marco Pellegrino Boca Juniors Ativo 130 / 120 40% 1 19.11.2028 -
Manu Koné AS Roma Ativo 170 / 163 40% 8 18.11.2028 -
Sven Botman Newcastle United Ativo 163 / 168 40% 6 18.11.2028 -
Jonathan De Irastorza Independiente Ativo 132 / 125 40% 5 15.11.2028 -
Tino Livramento Newcastle United Ativo 169 / 173 40% 11 14.11.2028 -
Óscar Mingueza Crystal Palace Ativo 156 / 166 40% 7 13.11.2028 -
Riccardo Calafiori Burnley Ativo 167 / 160 40% 2 13.11.2028 -
Adam Wharton Crystal Palace Ativo 164 / 168 40% 5 11.11.2028 -
Neco Williams Wrexham Ativo 154 / 149 40% 5 11.11.2028 -
Riku Yamane Yokohama F. Marinos Ativo 140 / 135 40% 4 11.11.2028 -
Wesley Fofana Chelsea Ativo 175 / 171 40% 2 09.11.2028 -
Guille Rosas Boca Juniors Ativo 145 / 146 40% 5 02.11.2028 -
Tobías Ramírez River Plate Ativo 133 / 127 40% 3 02.11.2028 -
Ousmane Diomande Nottingham Forest Ativo 160 / 160 40% 2 02.11.2028 -
Quinten Timber Crystal Palace Ativo 164 / 167 40% 3 31.10.2028 -
Moisés Caicedo Chelsea Ativo 173 / 177 40% 3 31.10.2028 -
Levi Colwill Chelsea Ativo 170 / 172 40% 1 30.10.2028 -
Mats Wieffer Brighton Ativo 151 / 155 40% 8 29.10.2028 -
André Wolverhampton Ativo 156 / 153 40% 6 29.10.2028 -
Malick Thiaw Ipswich Town Ativo 162 / 164 40% 3 29.10.2028 -
Cristhian Mosquera Stoke City Ativo 160 / 165 40% 4 27.10.2028 -
Rico Lewis West Bromwich Albion Ativo 165 / 151 40% 7 22.10.2028 -
Anton Stach Reading Ativo 152 / 148 40% 1 22.10.2028 -
Michael Kayode Brentford Ativo 161 / 152 40% 1 20.10.2028 -
Celías Ingenthron Platense Ativo 114 / 123 40% 1 12.10.2028 -
Carlos Baleba Norwich City Ativo 164 / 151 40% 1 02.10.2028 -
Lautaro Di Lollo Boca Juniors Perdido 139 / 146 40% 1 04.09.2028 -
Max Johnston Derby County Ativo 143 / 137 40% 1 31.07.2028 -
Artem Slesar Zorya Perdido 123 / 125 83% 1 26.06.2028 -
El Bilal Touré Atalanta Ativo 145 / 132 40% 2 16.06.2028 -
Ryan Kavuma-McQueen Accrington Stanley Ativo 121 / 122 40% 1 16.06.2028 -
Roman Vantukh Metalist Perdido 116 / 118 83% 1 14.06.2028 -
Thiago Brentford Ativo 155 / 160 40% 1 13.06.2028 -
Matteo Ruggeri Middlesbrough Ativo 160 / 150 40% 5 11.06.2028 -
Max Bird Birmingham Ativo 135 / 146 40% 6 02.06.2028 -
Thierry Small Preston Ativo 122 / 121 40% 1 02.06.2028 -
Archie Gray Southampton Ativo 153 / 150 40% 3 31.05.2028 -
Welington Southampton Ativo 142 / 134 40% 7 25.05.2028 -
Joe Rodon Blackburn Rovers Ativo 140 / 138 40% 5 20.05.2028 -
Shea Charles Southampton Ativo 152 / 136 40% 2 20.05.2028 -
Bafodé Diakité Plymouth Argyle Ativo 152 / 156 40% 5 17.05.2028 -
Callum Brittain Middlesbrough Ativo 130 / 123 40% 6 13.05.2028 -
Odel Offiah Shrewsbury Town Ativo 130 / 137 40% 1 12.05.2028 -
Jacques Ekomié Wrexham Ativo 134 / 123 40% 1 11.05.2028 -
Exequiel Palacios Lazio Ativo 165 / 166 40% 1 10.05.2028 -
Derry Murkin Derby County Ativo 140 / 121 40% 1 09.05.2028 -
Manuel Ugarte Leicester City Ativo 150 / 155 40% 3 03.05.2028 -
Jayden Bogle Leeds United Ativo 139 / 133 40% 2 03.05.2028 -
Vitaly Janelt Derby County Ativo 142 / 151 40% 2 10.04.2028 -
Jake O'Brien Everton Ativo 147 / 148 40% 1 01.04.2028 -
Xaver Schlager Nottingham Forest Ativo 153 / 161 40% 1 19.03.2028 -
Malick Fofana Sunderland Ativo 152 / 142 40% 1 24.01.2028 -
Mateus Mané Burnley Ativo 138 / 153 40% 1 13.06.2027 -
Armstrong Oko-Flex Levski Ativo 123 / 113 40% 2 20.01.2027 -
Papa Ndiaga Yade Oleksandriya Ativo 102 / 106 40% 3 20.01.2027 -
Amir Hosseini Rah Ahan Ativo 98 / 94 40% 1 14.01.2027 -
Erick Dolly Black Aces Ativo 112 / 128 40% 2 04.01.2027 -
Myroslav Trofymiuk Prykarpattia Ativo 78 / 91 40% 1 04.01.2027 -
Peter Itodo Metalist Ativo 107 / 125 40% 2 28.12.2026 -
Majid Moharrami Rah Ahan Ativo 106 / 116 40% 1 28.12.2026 -
Ivo Mammini Beitar Jerusalem Ativo 107 / 118 40% 1 20.12.2026 -
Isaac Matondo Koper Ativo 110 / 101 40% 1 04.12.2026 -
Etiosa Ighodaro Kaizer Chiefs Ativo 114 / 123 40% 1 03.12.2026 -
Oleksii Vorobiov Rukh Ativo 53 / 65 83% 1 / 1m 28.11.2026 Rejeitar
Mykola Siruk Rukh Ativo 53 / 58 83% 1 / 1m 28.11.2026 -
Yehor Klymenko Rukh Ativo 63 / 76 83% 1 / 1m 28.11.2026 -
Denys Ustymenko Obolon Ativo 104 / 99 40% 1 13.11.2026 -
Daniel Karlsbakk Sarpsborg 08 Ativo 130 / 134 40% 1 13.11.2026 -
Erik Botheim Viking Ativo 131 / 123 40% 1 12.11.2026 -
Baton Zabërgja Kryvbas Ativo 115 / 102 40% 1 04.11.2026 -
Amir Hossein Hosseinzadeh Tractor Ativo 119 / 112 40% 1 04.11.2026 -
Crysencio Summerville Al-Hilal Ativo 131 / 130 40% 1 18.08.2026 -
António Silva Bournemouth Ativo 139 / 136 40% 1 02.08.2026 -